sensor_id;sensor_type;location;lat;lon;timestamp;P1;durP1;ratioP1;P2;durP2;ratioP2
9256;SDS011;4665;51.368;6.782;2023-02-11T00:01:31;24.00;;;17.30;;
9256;SDS011;4665;51.368;6.782;2023-02-11T00:03:58;26.33;;;17.40;;
9256;SDS011;4665;51.368;6.782;2023-02-11T00:06:25;22.97;;;16.63;;
9256;SDS011;4665;51.368;6.782;2023-02-11T00:08:52;22.83;;;16.63;;
9256;SDS011;4665;51.368;6.782;2023-02-11T00:11:18;22.90;;;17.30;;
9256;SDS011;4665;51.368;6.782;2023-02-11T00:13:45;28.30;;;16.67;;
9256;SDS011;4665;51.368;6.782;2023-02-11T00:16:15;19.53;;;15.50;;
9256;SDS011;4665;51.368;6.782;2023-02-11T00:18:42;25.37;;;17.23;;
9256;SDS011;4665;51.368;6.782;2023-02-11T00:21:09;24.33;;;16.70;;
9256;SDS011;4665;51.368;6.782;2023-02-11T00:23:39;22.37;;;16.83;;
9256;SDS011;4665;51.368;6.782;2023-02-11T00:26:38;21.37;;;17.23;;
9256;SDS011;4665;51.368;6.782;2023-02-11T00:28:58;20.93;;;16.37;;
9256;SDS011;4665;51.368;6.782;2023-02-11T00:31:25;22.20;;;17.03;;
9256;SDS011;4665;51.368;6.782;2023-02-11T00:33:50;24.20;;;16.83;;
9256;SDS011;4665;51.368;6.782;2023-02-11T00:36:17;23.67;;;16.87;;
9256;SDS011;4665;51.368;6.782;2023-02-11T00:38:45;22.93;;;16.60;;
9256;SDS011;4665;51.368;6.782;2023-02-11T00:41:11;22.77;;;16.40;;
9256;SDS011;4665;51.368;6.782;2023-02-11T00:43:38;23.50;;;16.37;;
9256;SDS011;4665;51.368;6.782;2023-02-11T00:46:04;21.53;;;16.03;;
9256;SDS011;4665;51.368;6.782;2023-02-11T00:48:30;25.10;;;16.07;;
9256;SDS011;4665;51.368;6.782;2023-02-11T00:50:58;22.93;;;16.27;;
9256;SDS011;4665;51.368;6.782;2023-02-11T00:53:23;25.70;;;16.70;;
9256;SDS011;4665;51.368;6.782;2023-02-11T00:55:50;21.53;;;15.50;;
9256;SDS011;4665;51.368;6.782;2023-02-11T00:58:15;20.87;;;15.37;;
9256;SDS011;4665;51.368;6.782;2023-02-11T01:00:41;24.13;;;16.57;;
9256;SDS011;4665;51.368;6.782;2023-02-11T01:03:06;22.43;;;16.07;;
9256;SDS011;4665;51.368;6.782;2023-02-11T01:05:32;21.40;;;14.97;;
9256;SDS011;4665;51.368;6.782;2023-02-11T01:07:58;27.37;;;16.50;;
9256;SDS011;4665;51.368;6.782;2023-02-11T01:10:23;22.13;;;15.30;;
9256;SDS011;4665;51.368;6.782;2023-02-11T01:12:49;22.43;;;16.10;;
9256;SDS011;4665;51.368;6.782;2023-02-11T01:15:16;22.50;;;15.40;;
9256;SDS011;4665;51.368;6.782;2023-02-11T01:17:43;18.73;;;14.80;;
9256;SDS011;4665;51.368;6.782;2023-02-11T01:20:11;22.63;;;15.40;;
9256;SDS011;4665;51.368;6.782;2023-02-11T01:22:39;22.63;;;16.03;;
9256;SDS011;4665;51.368;6.782;2023-02-11T01:25:05;20.07;;;15.50;;
9256;SDS011;4665;51.368;6.782;2023-02-11T01:27:32;22.20;;;15.07;;
9256;SDS011;4665;51.368;6.782;2023-02-11T01:29:58;20.07;;;14.80;;
9256;SDS011;4665;51.368;6.782;2023-02-11T01:32:23;21.80;;;15.10;;
9256;SDS011;4665;51.368;6.782;2023-02-11T01:34:49;19.90;;;13.90;;
9256;SDS011;4665;51.368;6.782;2023-02-11T01:37:14;22.43;;;15.60;;
9256;SDS011;4665;51.368;6.782;2023-02-11T01:39:39;19.83;;;15.47;;
9256;SDS011;4665;51.368;6.782;2023-02-11T01:42:05;24.87;;;16.33;;
9256;SDS011;4665;51.368;6.782;2023-02-11T01:44:32;20.73;;;14.87;;
9256;SDS011;4665;51.368;6.782;2023-02-11T01:46:59;23.17;;;15.43;;
9256;SDS011;4665;51.368;6.782;2023-02-11T01:49:29;17.53;;;14.20;;
9256;SDS011;4665;51.368;6.782;2023-02-11T01:52:05;20.90;;;15.93;;
9256;SDS011;4665;51.368;6.782;2023-02-11T01:54:39;20.30;;;16.00;;
9256;SDS011;4665;51.368;6.782;2023-02-11T01:57:27;20.27;;;14.03;;
9256;SDS011;4665;51.368;6.782;2023-02-11T02:02:57;19.70;;;14.50;;
9256;SDS011;4665;51.368;6.782;2023-02-11T02:10:46;21.93;;;15.43;;
9256;SDS011;4665;51.368;6.782;2023-02-11T02:13:14;24.13;;;15.70;;
9256;SDS011;4665;51.368;6.782;2023-02-11T02:15:40;23.37;;;16.00;;
9256;SDS011;4665;51.368;6.782;2023-02-11T02:26:18;21.47;;;15.30;;
9256;SDS011;4665;51.368;6.782;2023-02-11T02:34:29;23.27;;;15.33;;
9256;SDS011;4665;51.368;6.782;2023-02-11T02:37:43;20.40;;;15.33;;
9256;SDS011;4665;51.368;6.782;2023-02-11T02:40:27;20.40;;;15.00;;
9256;SDS011;4665;51.368;6.782;2023-02-11T02:42:57;20.00;;;15.07;;
9256;SDS011;4665;51.368;6.782;2023-02-11T02:45:25;23.23;;;15.77;;
9256;SDS011;4665;51.368;6.782;2023-02-11T02:47:51;25.37;;;16.13;;
9256;SDS011;4665;51.368;6.782;2023-02-11T02:50:17;22.33;;;15.17;;
9256;SDS011;4665;51.368;6.782;2023-02-11T02:56:03;24.57;;;15.07;;
9256;SDS011;4665;51.368;6.782;2023-02-11T03:07:36;22.57;;;14.80;;
9256;SDS011;4665;51.368;6.782;2023-02-11T03:10:09;23.80;;;14.70;;
9256;SDS011;4665;51.368;6.782;2023-02-11T03:12:39;23.17;;;14.40;;
9256;SDS011;4665;51.368;6.782;2023-02-11T03:15:08;19.63;;;14.07;;
9256;SDS011;4665;51.368;6.782;2023-02-11T03:17:35;22.60;;;14.47;;
9256;SDS011;4665;51.368;6.782;2023-02-11T03:20:06;19.87;;;14.57;;
9256;SDS011;4665;51.368;6.782;2023-02-11T03:22:40;18.80;;;13.83;;
9256;SDS011;4665;51.368;6.782;2023-02-11T03:25:10;20.43;;;13.77;;
9256;SDS011;4665;51.368;6.782;2023-02-11T03:27:58;22.10;;;13.20;;
9256;SDS011;4665;51.368;6.782;2023-02-11T03:30:31;22.07;;;13.50;;
9256;SDS011;4665;51.368;6.782;2023-02-11T03:33:08;22.07;;;13.43;;
9256;SDS011;4665;51.368;6.782;2023-02-11T03:35:42;19.53;;;14.07;;
9256;SDS011;4665;51.368;6.782;2023-02-11T03:38:19;19.60;;;13.20;;
9256;SDS011;4665;51.368;6.782;2023-02-11T03:40:49;19.03;;;12.80;;
9256;SDS011;4665;51.368;6.782;2023-02-11T03:43:19;18.67;;;12.90;;
9256;SDS011;4665;51.368;6.782;2023-02-11T03:45:48;21.07;;;13.43;;
9256;SDS011;4665;51.368;6.782;2023-02-11T03:48:27;23.80;;;13.50;;
9256;SDS011;4665;51.368;6.782;2023-02-11T03:50:56;18.83;;;13.83;;
9256;SDS011;4665;51.368;6.782;2023-02-11T03:53:25;22.03;;;14.50;;
9256;SDS011;4665;51.368;6.782;2023-02-11T03:55:51;22.53;;;14.20;;
9256;SDS011;4665;51.368;6.782;2023-02-11T03:58:18;20.47;;;13.93;;
9256;SDS011;4665;51.368;6.782;2023-02-11T04:00:44;20.87;;;13.10;;
9256;SDS011;4665;51.368;6.782;2023-02-11T04:03:10;24.33;;;13.83;;
9256;SDS011;4665;51.368;6.782;2023-02-11T04:05:37;17.97;;;13.13;;
9256;SDS011;4665;51.368;6.782;2023-02-11T04:08:03;22.37;;;14.10;;
9256;SDS011;4665;51.368;6.782;2023-02-11T04:10:29;22.20;;;14.47;;
9256;SDS011;4665;51.368;6.782;2023-02-11T04:12:54;19.97;;;14.00;;
9256;SDS011;4665;51.368;6.782;2023-02-11T04:15:20;20.43;;;13.37;;
9256;SDS011;4665;51.368;6.782;2023-02-11T04:17:46;22.93;;;14.03;;
9256;SDS011;4665;51.368;6.782;2023-02-11T04:20:11;25.83;;;13.10;;
9256;SDS011;4665;51.368;6.782;2023-02-11T04:22:37;21.37;;;13.77;;
9256;SDS011;4665;51.368;6.782;2023-02-11T04:25:03;21.83;;;13.70;;
9256;SDS011;4665;51.368;6.782;2023-02-11T04:27:30;16.97;;;13.27;;
9256;SDS011;4665;51.368;6.782;2023-02-11T04:29:55;20.83;;;12.80;;
9256;SDS011;4665;51.368;6.782;2023-02-11T04:32:21;21.30;;;13.23;;
9256;SDS011;4665;51.368;6.782;2023-02-11T04:34:46;19.53;;;13.40;;
9256;SDS011;4665;51.368;6.782;2023-02-11T04:37:12;18.27;;;13.13;;
9256;SDS011;4665;51.368;6.782;2023-02-11T04:39:38;20.20;;;13.73;;
9256;SDS011;4665;51.368;6.782;2023-02-11T04:42:03;22.30;;;13.23;;
9256;SDS011;4665;51.368;6.782;2023-02-11T04:44:29;19.43;;;12.87;;
9256;SDS011;4665;51.368;6.782;2023-02-11T04:46:54;19.90;;;14.33;;
9256;SDS011;4665;51.368;6.782;2023-02-11T04:49:20;29.63;;;15.07;;
9256;SDS011;4665;51.368;6.782;2023-02-11T04:51:47;25.87;;;14.40;;
9256;SDS011;4665;51.368;6.782;2023-02-11T04:54:13;26.27;;;14.57;;
9256;SDS011;4665;51.368;6.782;2023-02-11T04:56:38;22.73;;;14.83;;
9256;SDS011;4665;51.368;6.782;2023-02-11T04:59:05;23.60;;;15.03;;
9256;SDS011;4665;51.368;6.782;2023-02-11T05:01:31;24.07;;;15.73;;
9256;SDS011;4665;51.368;6.782;2023-02-11T05:03:58;29.13;;;16.57;;
9256;SDS011;4665;51.368;6.782;2023-02-11T05:06:24;28.67;;;16.80;;
9256;SDS011;4665;51.368;6.782;2023-02-11T05:08:49;23.93;;;16.27;;
9256;SDS011;4665;51.368;6.782;2023-02-11T05:11:16;27.60;;;17.30;;
9256;SDS011;4665;51.368;6.782;2023-02-11T05:13:43;26.53;;;16.67;;
9256;SDS011;4665;51.368;6.782;2023-02-11T05:16:09;29.90;;;17.00;;
9256;SDS011;4665;51.368;6.782;2023-02-11T05:18:38;26.37;;;17.33;;
9256;SDS011;4665;51.368;6.782;2023-02-11T05:21:06;28.20;;;17.67;;
9256;SDS011;4665;51.368;6.782;2023-02-11T05:23:32;29.90;;;17.63;;
9256;SDS011;4665;51.368;6.782;2023-02-11T05:25:58;25.97;;;17.93;;
9256;SDS011;4665;51.368;6.782;2023-02-11T05:28:24;29.77;;;18.50;;
9256;SDS011;4665;51.368;6.782;2023-02-11T05:30:49;28.97;;;17.20;;
9256;SDS011;4665;51.368;6.782;2023-02-11T05:33:15;27.70;;;18.10;;
9256;SDS011;4665;51.368;6.782;2023-02-11T05:35:40;26.23;;;17.17;;
9256;SDS011;4665;51.368;6.782;2023-02-11T05:38:06;31.67;;;17.50;;
9256;SDS011;4665;51.368;6.782;2023-02-11T05:40:31;30.50;;;17.27;;
9256;SDS011;4665;51.368;6.782;2023-02-11T05:42:57;26.33;;;17.20;;
9256;SDS011;4665;51.368;6.782;2023-02-11T05:45:22;27.30;;;17.73;;
9256;SDS011;4665;51.368;6.782;2023-02-11T05:47:48;30.47;;;17.67;;
9256;SDS011;4665;51.368;6.782;2023-02-11T05:50:13;33.17;;;17.93;;
9256;SDS011;4665;51.368;6.782;2023-02-11T05:52:39;26.70;;;16.50;;
9256;SDS011;4665;51.368;6.782;2023-02-11T05:55:04;27.23;;;17.53;;
9256;SDS011;4665;51.368;6.782;2023-02-11T05:57:30;30.57;;;17.17;;
9256;SDS011;4665;51.368;6.782;2023-02-11T05:59:56;23.47;;;16.83;;
9256;SDS011;4665;51.368;6.782;2023-02-11T06:02:22;28.30;;;16.27;;
9256;SDS011;4665;51.368;6.782;2023-02-11T06:04:47;31.00;;;16.93;;
9256;SDS011;4665;51.368;6.782;2023-02-11T06:07:13;27.37;;;16.37;;
9256;SDS011;4665;51.368;6.782;2023-02-11T06:09:38;24.60;;;16.30;;
9256;SDS011;4665;51.368;6.782;2023-02-11T06:12:04;21.43;;;15.57;;
9256;SDS011;4665;51.368;6.782;2023-02-11T06:14:31;25.77;;;16.00;;
9256;SDS011;4665;51.368;6.782;2023-02-11T06:16:57;23.43;;;15.23;;
9256;SDS011;4665;51.368;6.782;2023-02-11T06:19:23;25.20;;;16.20;;
9256;SDS011;4665;51.368;6.782;2023-02-11T06:21:49;27.53;;;16.30;;
9256;SDS011;4665;51.368;6.782;2023-02-11T06:24:14;22.27;;;14.60;;
9256;SDS011;4665;51.368;6.782;2023-02-11T06:26:39;24.37;;;15.93;;
9256;SDS011;4665;51.368;6.782;2023-02-11T06:29:05;28.47;;;17.90;;
9256;SDS011;4665;51.368;6.782;2023-02-11T06:31:30;25.43;;;16.33;;
9256;SDS011;4665;51.368;6.782;2023-02-11T06:33:56;26.17;;;15.90;;
9256;SDS011;4665;51.368;6.782;2023-02-11T06:36:23;25.80;;;15.73;;
9256;SDS011;4665;51.368;6.782;2023-02-11T06:38:48;29.47;;;16.90;;
9256;SDS011;4665;51.368;6.782;2023-02-11T06:41:15;26.70;;;15.93;;
9256;SDS011;4665;51.368;6.782;2023-02-11T06:43:44;24.90;;;16.40;;
9256;SDS011;4665;51.368;6.782;2023-02-11T06:46:09;32.33;;;16.97;;
9256;SDS011;4665;51.368;6.782;2023-02-11T06:48:35;34.87;;;17.43;;
9256;SDS011;4665;51.368;6.782;2023-02-11T06:51:05;28.43;;;17.53;;
9256;SDS011;4665;51.368;6.782;2023-02-11T06:53:38;35.60;;;17.70;;
9256;SDS011;4665;51.368;6.782;2023-02-11T06:56:07;30.50;;;17.07;;
9256;SDS011;4665;51.368;6.782;2023-02-11T06:58:35;24.70;;;15.60;;
9256;SDS011;4665;51.368;6.782;2023-02-11T07:01:04;36.03;;;16.93;;
9256;SDS011;4665;51.368;6.782;2023-02-11T07:03:34;33.50;;;17.27;;
9256;SDS011;4665;51.368;6.782;2023-02-11T07:06:01;25.43;;;16.57;;
9256;SDS011;4665;51.368;6.782;2023-02-11T07:08:27;31.27;;;16.97;;
9256;SDS011;4665;51.368;6.782;2023-02-11T07:10:53;35.93;;;17.67;;
9256;SDS011;4665;51.368;6.782;2023-02-11T07:13:18;33.50;;;18.30;;
9256;SDS011;4665;51.368;6.782;2023-02-11T07:15:44;29.07;;;17.93;;
9256;SDS011;4665;51.368;6.782;2023-02-11T07:18:09;33.00;;;17.63;;
9256;SDS011;4665;51.368;6.782;2023-02-11T07:20:36;33.80;;;17.53;;
9256;SDS011;4665;51.368;6.782;2023-02-11T07:23:02;35.60;;;18.37;;
9256;SDS011;4665;51.368;6.782;2023-02-11T07:25:28;36.17;;;18.50;;
9256;SDS011;4665;51.368;6.782;2023-02-11T07:27:53;31.40;;;18.00;;
9256;SDS011;4665;51.368;6.782;2023-02-11T07:30:19;39.03;;;20.23;;
9256;SDS011;4665;51.368;6.782;2023-02-11T07:32:44;33.27;;;18.00;;
9256;SDS011;4665;51.368;6.782;2023-02-11T07:35:10;36.87;;;19.50;;
9256;SDS011;4665;51.368;6.782;2023-02-11T07:37:35;33.77;;;17.57;;
9256;SDS011;4665;51.368;6.782;2023-02-11T07:40:01;32.70;;;18.43;;
9256;SDS011;4665;51.368;6.782;2023-02-11T07:42:26;33.20;;;18.33;;
9256;SDS011;4665;51.368;6.782;2023-02-11T07:44:51;32.20;;;17.67;;
9256;SDS011;4665;51.368;6.782;2023-02-11T07:47:17;37.97;;;18.90;;
9256;SDS011;4665;51.368;6.782;2023-02-11T07:49:42;40.50;;;18.97;;
9256;SDS011;4665;51.368;6.782;2023-02-11T07:52:08;42.93;;;19.53;;
9256;SDS011;4665;51.368;6.782;2023-02-11T07:54:33;34.40;;;18.10;;
9256;SDS011;4665;51.368;6.782;2023-02-11T07:56:59;40.33;;;19.20;;
9256;SDS011;4665;51.368;6.782;2023-02-11T07:59:24;33.70;;;19.47;;
9256;SDS011;4665;51.368;6.782;2023-02-11T08:01:51;35.33;;;19.30;;
9256;SDS011;4665;51.368;6.782;2023-02-11T08:04:16;35.73;;;19.07;;
9256;SDS011;4665;51.368;6.782;2023-02-11T08:09:21;40.43;;;19.47;;
9256;SDS011;4665;51.368;6.782;2023-02-11T08:11:47;36.07;;;18.80;;
9256;SDS011;4665;51.368;6.782;2023-02-11T08:14:13;39.80;;;20.17;;
9256;SDS011;4665;51.368;6.782;2023-02-11T08:16:38;32.30;;;18.43;;
9256;SDS011;4665;51.368;6.782;2023-02-11T08:19:10;38.17;;;20.20;;
9256;SDS011;4665;51.368;6.782;2023-02-11T08:21:37;36.27;;;18.93;;
9256;SDS011;4665;51.368;6.782;2023-02-11T08:24:03;38.90;;;18.87;;
9256;SDS011;4665;51.368;6.782;2023-02-11T08:26:30;41.43;;;19.77;;
9256;SDS011;4665;51.368;6.782;2023-02-11T08:28:58;36.73;;;20.17;;
9256;SDS011;4665;51.368;6.782;2023-02-11T08:31:26;37.47;;;19.53;;
9256;SDS011;4665;51.368;6.782;2023-02-11T08:33:53;37.00;;;19.20;;
9256;SDS011;4665;51.368;6.782;2023-02-11T08:36:22;39.87;;;21.17;;
9256;SDS011;4665;51.368;6.782;2023-02-11T08:38:57;39.13;;;19.97;;
9256;SDS011;4665;51.368;6.782;2023-02-11T08:41:24;41.10;;;21.27;;
9256;SDS011;4665;51.368;6.782;2023-02-11T08:43:52;39.33;;;20.13;;
9256;SDS011;4665;51.368;6.782;2023-02-11T08:46:18;36.57;;;20.03;;
9256;SDS011;4665;51.368;6.782;2023-02-11T08:48:44;43.37;;;20.90;;
9256;SDS011;4665;51.368;6.782;2023-02-11T08:54:32;48.60;;;20.70;;
9256;SDS011;4665;51.368;6.782;2023-02-11T09:00:01;38.03;;;21.33;;
9256;SDS011;4665;51.368;6.782;2023-02-11T09:02:34;41.90;;;21.30;;
9256;SDS011;4665;51.368;6.782;2023-02-11T09:04:59;41.03;;;22.63;;
9256;SDS011;4665;51.368;6.782;2023-02-11T09:07:43;41.73;;;22.17;;
9256;SDS011;4665;51.368;6.782;2023-02-11T09:13:09;40.77;;;21.53;;
9256;SDS011;4665;51.368;6.782;2023-02-11T09:15:37;41.17;;;21.73;;
9256;SDS011;4665;51.368;6.782;2023-02-11T09:18:03;43.33;;;22.03;;
9256;SDS011;4665;51.368;6.782;2023-02-11T09:22:58;41.80;;;21.97;;
9256;SDS011;4665;51.368;6.782;2023-02-11T09:25:24;38.40;;;21.90;;
9256;SDS011;4665;51.368;6.782;2023-02-11T09:27:49;44.07;;;21.93;;
9256;SDS011;4665;51.368;6.782;2023-02-11T09:30:16;38.30;;;22.53;;
9256;SDS011;4665;51.368;6.782;2023-02-11T09:32:41;39.37;;;21.87;;
9256;SDS011;4665;51.368;6.782;2023-02-11T09:35:07;44.07;;;22.50;;
9256;SDS011;4665;51.368;6.782;2023-02-11T09:37:32;45.07;;;23.53;;
9256;SDS011;4665;51.368;6.782;2023-02-11T09:39:59;46.40;;;23.13;;
9256;SDS011;4665;51.368;6.782;2023-02-11T09:45:20;39.57;;;22.03;;
9256;SDS011;4665;51.368;6.782;2023-02-11T09:47:50;42.63;;;23.30;;
9256;SDS011;4665;51.368;6.782;2023-02-11T09:50:20;33.00;;;20.73;;
9256;SDS011;4665;51.368;6.782;2023-02-11T09:58:04;37.00;;;20.40;;
9256;SDS011;4665;51.368;6.782;2023-02-11T10:00:36;33.70;;;21.60;;
9256;SDS011;4665;51.368;6.782;2023-02-11T10:11:40;46.63;;;22.53;;
9256;SDS011;4665;51.368;6.782;2023-02-11T10:14:35;39.97;;;21.10;;
9256;SDS011;4665;51.368;6.782;2023-02-11T10:19:56;35.33;;;21.20;;
9256;SDS011;4665;51.368;6.782;2023-02-11T10:22:31;40.83;;;21.30;;
9256;SDS011;4665;51.368;6.782;2023-02-11T10:25:07;37.27;;;21.53;;
9256;SDS011;4665;51.368;6.782;2023-02-11T10:27:44;38.43;;;22.20;;
9256;SDS011;4665;51.368;6.782;2023-02-11T10:35:28;40.20;;;22.87;;
9256;SDS011;4665;51.368;6.782;2023-02-11T10:37:54;37.77;;;22.83;;
9256;SDS011;4665;51.368;6.782;2023-02-11T10:40:26;38.47;;;21.60;;
9256;SDS011;4665;51.368;6.782;2023-02-11T10:43:00;39.07;;;22.83;;
9256;SDS011;4665;51.368;6.782;2023-02-11T10:45:32;44.63;;;22.97;;
9256;SDS011;4665;51.368;6.782;2023-02-11T10:48:04;40.80;;;22.37;;
9256;SDS011;4665;51.368;6.782;2023-02-11T10:50:50;38.33;;;22.00;;
9256;SDS011;4665;51.368;6.782;2023-02-11T10:53:31;44.23;;;23.37;;
9256;SDS011;4665;51.368;6.782;2023-02-11T10:55:58;44.73;;;21.80;;
9256;SDS011;4665;51.368;6.782;2023-02-11T11:01:16;40.37;;;22.80;;
9256;SDS011;4665;51.368;6.782;2023-02-11T11:03:45;43.70;;;22.30;;
9256;SDS011;4665;51.368;6.782;2023-02-11T11:06:14;36.37;;;21.70;;
9256;SDS011;4665;51.368;6.782;2023-02-11T11:08:47;43.77;;;23.57;;
9256;SDS011;4665;51.368;6.782;2023-02-11T11:16:34;41.87;;;22.83;;
9256;SDS011;4665;51.368;6.782;2023-02-11T11:21:34;39.17;;;22.73;;
9256;SDS011;4665;51.368;6.782;2023-02-11T11:24:26;42.47;;;23.07;;
9256;SDS011;4665;51.368;6.782;2023-02-11T11:26:58;38.50;;;23.43;;
9256;SDS011;4665;51.368;6.782;2023-02-11T11:29:29;36.20;;;22.63;;
9256;SDS011;4665;51.368;6.782;2023-02-11T11:32:00;38.17;;;23.57;;
9256;SDS011;4665;51.368;6.782;2023-02-11T11:34:36;44.33;;;23.13;;
9256;SDS011;4665;51.368;6.782;2023-02-11T11:37:18;43.57;;;25.23;;
9256;SDS011;4665;51.368;6.782;2023-02-11T11:39:58;42.07;;;23.97;;
9256;SDS011;4665;51.368;6.782;2023-02-11T11:42:29;47.50;;;24.10;;
9256;SDS011;4665;51.368;6.782;2023-02-11T11:50:25;42.90;;;23.53;;
9256;SDS011;4665;51.368;6.782;2023-02-11T11:55:26;48.50;;;23.40;;
9256;SDS011;4665;51.368;6.782;2023-02-11T11:57:55;41.37;;;22.97;;
9256;SDS011;4665;51.368;6.782;2023-02-11T12:00:34;42.53;;;24.40;;
9256;SDS011;4665;51.368;6.782;2023-02-11T12:05:51;42.37;;;23.40;;
9256;SDS011;4665;51.368;6.782;2023-02-11T12:17:10;41.43;;;24.93;;
9256;SDS011;4665;51.368;6.782;2023-02-11T12:19:49;42.60;;;24.30;;
9256;SDS011;4665;51.368;6.782;2023-02-11T12:25:29;45.73;;;24.33;;
9256;SDS011;4665;51.368;6.782;2023-02-11T12:36:14;42.33;;;23.97;;
9256;SDS011;4665;51.368;6.782;2023-02-11T12:41:54;38.60;;;23.37;;
9256;SDS011;4665;51.368;6.782;2023-02-11T12:57:02;44.57;;;24.77;;
9256;SDS011;4665;51.368;6.782;2023-02-11T13:08:45;38.60;;;23.53;;
9256;SDS011;4665;51.368;6.782;2023-02-11T13:13:54;45.27;;;24.07;;
9256;SDS011;4665;51.368;6.782;2023-02-11T13:16:43;38.73;;;23.30;;
9256;SDS011;4665;51.368;6.782;2023-02-11T13:33:01;43.97;;;25.10;;
9256;SDS011;4665;51.368;6.782;2023-02-11T13:36:09;44.63;;;25.20;;
9256;SDS011;4665;51.368;6.782;2023-02-11T13:38:34;39.93;;;24.93;;
9256;SDS011;4665;51.368;6.782;2023-02-11T13:41:42;41.77;;;24.97;;
9256;SDS011;4665;51.368;6.782;2023-02-11T13:44:27;45.83;;;25.57;;
9256;SDS011;4665;51.368;6.782;2023-02-11T13:46:57;44.13;;;25.50;;
9256;SDS011;4665;51.368;6.782;2023-02-11T13:49:30;40.00;;;24.83;;
9256;SDS011;4665;51.368;6.782;2023-02-11T13:52:23;46.17;;;25.23;;
9256;SDS011;4665;51.368;6.782;2023-02-11T13:55:00;39.47;;;24.87;;
9256;SDS011;4665;51.368;6.782;2023-02-11T13:57:45;40.07;;;24.03;;
9256;SDS011;4665;51.368;6.782;2023-02-11T14:22:01;43.37;;;26.13;;
9256;SDS011;4665;51.368;6.782;2023-02-11T14:26:59;41.47;;;24.43;;
9256;SDS011;4665;51.368;6.782;2023-02-11T14:35:13;41.93;;;24.47;;
9256;SDS011;4665;51.368;6.782;2023-02-11T14:37:51;41.50;;;24.97;;
9256;SDS011;4665;51.368;6.782;2023-02-11T14:40:29;36.27;;;23.03;;
9256;SDS011;4665;51.368;6.782;2023-02-11T14:43:38;39.60;;;24.20;;
9256;SDS011;4665;51.368;6.782;2023-02-11T14:46:00;36.53;;;24.03;;
9256;SDS011;4665;51.368;6.782;2023-02-11T14:48:28;42.47;;;25.30;;
9256;SDS011;4665;51.368;6.782;2023-02-11T14:53:27;39.03;;;24.50;;
9256;SDS011;4665;51.368;6.782;2023-02-11T14:55:55;33.63;;;23.00;;
9256;SDS011;4665;51.368;6.782;2023-02-11T14:58:39;34.43;;;23.07;;
9256;SDS011;4665;51.368;6.782;2023-02-11T15:01:27;37.07;;;25.33;;
9256;SDS011;4665;51.368;6.782;2023-02-11T15:04:03;43.50;;;25.17;;
9256;SDS011;4665;51.368;6.782;2023-02-11T15:06:46;38.70;;;23.93;;
9256;SDS011;4665;51.368;6.782;2023-02-11T15:09:16;38.07;;;23.53;;
9256;SDS011;4665;51.368;6.782;2023-02-11T15:11:44;40.17;;;25.40;;
9256;SDS011;4665;51.368;6.782;2023-02-11T15:14:19;37.40;;;24.87;;
9256;SDS011;4665;51.368;6.782;2023-02-11T15:16:46;38.77;;;24.23;;
9256;SDS011;4665;51.368;6.782;2023-02-11T15:19:22;35.53;;;22.73;;
9256;SDS011;4665;51.368;6.782;2023-02-11T15:21:52;33.20;;;22.17;;
9256;SDS011;4665;51.368;6.782;2023-02-11T15:26:44;33.37;;;22.00;;
9256;SDS011;4665;51.368;6.782;2023-02-11T15:29:16;42.20;;;24.57;;
9256;SDS011;4665;51.368;6.782;2023-02-11T15:31:41;36.10;;;22.73;;
9256;SDS011;4665;51.368;6.782;2023-02-11T15:34:07;43.17;;;24.50;;
9256;SDS011;4665;51.368;6.782;2023-02-11T15:36:33;39.07;;;24.27;;
9256;SDS011;4665;51.368;6.782;2023-02-11T15:39:16;35.60;;;24.23;;
9256;SDS011;4665;51.368;6.782;2023-02-11T15:44:45;36.37;;;23.10;;
9256;SDS011;4665;51.368;6.782;2023-02-11T15:47:11;38.37;;;23.83;;
9256;SDS011;4665;51.368;6.782;2023-02-11T15:49:44;35.53;;;21.97;;
9256;SDS011;4665;51.368;6.782;2023-02-11T15:52:11;38.90;;;24.47;;
9256;SDS011;4665;51.368;6.782;2023-02-11T15:54:38;35.53;;;22.07;;
9256;SDS011;4665;51.368;6.782;2023-02-11T15:57:09;37.47;;;23.93;;
9256;SDS011;4665;51.368;6.782;2023-02-11T15:59:36;41.63;;;24.37;;
9256;SDS011;4665;51.368;6.782;2023-02-11T16:02:06;39.63;;;23.77;;
9256;SDS011;4665;51.368;6.782;2023-02-11T16:04:34;36.23;;;23.20;;
9256;SDS011;4665;51.368;6.782;2023-02-11T16:09:56;32.13;;;20.67;;
9256;SDS011;4665;51.368;6.782;2023-02-11T16:12:23;38.40;;;23.97;;
9256;SDS011;4665;51.368;6.782;2023-02-11T16:14:53;38.77;;;23.67;;
9256;SDS011;4665;51.368;6.782;2023-02-11T16:17:24;34.40;;;21.73;;
9256;SDS011;4665;51.368;6.782;2023-02-11T16:19:53;37.13;;;22.60;;
9256;SDS011;4665;51.368;6.782;2023-02-11T16:22:22;35.80;;;23.03;;
9256;SDS011;4665;51.368;6.782;2023-02-11T16:24:51;40.77;;;23.67;;
9256;SDS011;4665;51.368;6.782;2023-02-11T16:27:20;40.30;;;23.00;;
9256;SDS011;4665;51.368;6.782;2023-02-11T16:29:48;36.90;;;23.30;;
9256;SDS011;4665;51.368;6.782;2023-02-11T16:32:16;32.63;;;22.13;;
9256;SDS011;4665;51.368;6.782;2023-02-11T16:34:47;38.20;;;24.03;;
9256;SDS011;4665;51.368;6.782;2023-02-11T16:37:13;39.43;;;22.80;;
9256;SDS011;4665;51.368;6.782;2023-02-11T16:39:38;38.27;;;23.93;;
9256;SDS011;4665;51.368;6.782;2023-02-11T16:42:04;35.17;;;23.17;;
9256;SDS011;4665;51.368;6.782;2023-02-11T16:44:31;38.10;;;25.20;;
9256;SDS011;4665;51.368;6.782;2023-02-11T16:46:58;33.80;;;22.17;;
9256;SDS011;4665;51.368;6.782;2023-02-11T16:49:33;37.80;;;24.50;;
9256;SDS011;4665;51.368;6.782;2023-02-11T16:52:01;40.03;;;24.87;;
9256;SDS011;4665;51.368;6.782;2023-02-11T16:54:32;41.23;;;23.93;;
9256;SDS011;4665;51.368;6.782;2023-02-11T16:56:57;37.77;;;23.60;;
9256;SDS011;4665;51.368;6.782;2023-02-11T16:59:23;40.60;;;24.77;;
9256;SDS011;4665;51.368;6.782;2023-02-11T17:01:49;39.07;;;24.90;;
9256;SDS011;4665;51.368;6.782;2023-02-11T17:06:53;35.50;;;22.90;;
9256;SDS011;4665;51.368;6.782;2023-02-11T17:09:20;35.50;;;24.27;;
9256;SDS011;4665;51.368;6.782;2023-02-11T17:11:48;38.23;;;23.90;;
9256;SDS011;4665;51.368;6.782;2023-02-11T17:14:14;40.70;;;24.37;;
9256;SDS011;4665;51.368;6.782;2023-02-11T17:16:39;41.63;;;25.20;;
9256;SDS011;4665;51.368;6.782;2023-02-11T17:19:05;36.90;;;24.20;;
9256;SDS011;4665;51.368;6.782;2023-02-11T17:21:31;35.47;;;25.10;;
9256;SDS011;4665;51.368;6.782;2023-02-11T17:23:57;36.90;;;24.20;;
9256;SDS011;4665;51.368;6.782;2023-02-11T17:26:23;35.83;;;23.70;;
9256;SDS011;4665;51.368;6.782;2023-02-11T17:28:49;39.07;;;24.17;;
9256;SDS011;4665;51.368;6.782;2023-02-11T17:31:14;41.53;;;26.50;;
9256;SDS011;4665;51.368;6.782;2023-02-11T17:33:40;41.07;;;25.63;;
9256;SDS011;4665;51.368;6.782;2023-02-11T17:36:06;37.70;;;25.47;;
9256;SDS011;4665;51.368;6.782;2023-02-11T17:38:33;33.97;;;23.13;;
9256;SDS011;4665;51.368;6.782;2023-02-11T17:41:00;38.37;;;24.70;;
9256;SDS011;4665;51.368;6.782;2023-02-11T17:43:28;41.37;;;26.03;;
9256;SDS011;4665;51.368;6.782;2023-02-11T17:45:54;42.97;;;26.20;;
9256;SDS011;4665;51.368;6.782;2023-02-11T17:48:20;36.23;;;25.30;;
9256;SDS011;4665;51.368;6.782;2023-02-11T17:50:45;40.07;;;27.07;;
9256;SDS011;4665;51.368;6.782;2023-02-11T17:53:11;47.97;;;27.33;;
9256;SDS011;4665;51.368;6.782;2023-02-11T17:55:38;42.00;;;26.93;;
9256;SDS011;4665;51.368;6.782;2023-02-11T17:58:03;39.17;;;26.27;;
9256;SDS011;4665;51.368;6.782;2023-02-11T18:00:29;42.47;;;26.33;;
9256;SDS011;4665;51.368;6.782;2023-02-11T18:02:55;38.00;;;25.63;;
9256;SDS011;4665;51.368;6.782;2023-02-11T18:05:22;44.00;;;25.83;;
9256;SDS011;4665;51.368;6.782;2023-02-11T18:07:49;37.50;;;25.40;;
9256;SDS011;4665;51.368;6.782;2023-02-11T18:10:15;42.00;;;26.43;;
9256;SDS011;4665;51.368;6.782;2023-02-11T18:12:41;40.70;;;26.13;;
9256;SDS011;4665;51.368;6.782;2023-02-11T18:15:06;42.50;;;27.57;;
9256;SDS011;4665;51.368;6.782;2023-02-11T18:17:32;40.37;;;26.03;;
9256;SDS011;4665;51.368;6.782;2023-02-11T18:19:57;40.03;;;26.27;;